• Join FlightAware (Why Join?)
  • Login
  • US Flag 
09:26PM EST


 

Airport Tracker/Info


-or-


 

Live Flight TrackerFlight Track Log ✈ UAL3773 ✈ 19-Apr-2013 ✈ KIAD - KMCI

Flight Track Log - Related Links

Times and Time Zones

All times are in EDT time to prevent confusion due to time zone crossing. See the UAL3773 flight status page for this flight to view local times or setup timezone preferences in your user account.

Time Position Orientation Groundspeed Altitude Reporting Facility
EDT Latitude Longitude Course Direction KTS MPH feet Rate Location/Type
03:49PM 38.8497 -77.5347 270° West 213 245 6,600  Level Washington Center
03:50PM 38.8111 -77.5978 232° Southwest 224 258 7,700 1,800 Climbing Washington Center
03:51PM 38.7725 -77.6658 234° Southwest 231 266 10,200 1,920 Climbing Washington Center
03:52PM 38.7664 -77.7722 266° West 253 291 11,600 1,560 Climbing Washington Center
03:53PM 38.8330 -78.1319 287° West  Level FlightAware Approximate
03:53PM 38.7789 -77.8872 278° West 290 334 13,400  Level Washington Center
03:54PM 38.8500 -78.2590 270° West  Level FlightAware Approximate
03:54PM 38.8017 -78.0022 284° West 316 364 15,500  Level Washington Center
03:55PM 38.8328 -78.1181 289° West 333 383 17,000 2,160 Climbing Washington Center
03:56PM 38.8550 -78.2414 283° West 348 400 19,900 2,160 Climbing Washington Center
03:57PM 38.8544 -78.3586 270° West 348 400 21,400 1,320 Climbing Washington Center
03:58PM 38.8517 -78.4811 268° West 343 395 22,600 1,200 Climbing Washington Center
03:59PM 38.8506 -78.6064 269° West 348 400 23,900 1,260 Climbing Washington Center
04:00PM 38.8494 -78.7317 269° West 348 400 25,200 1,260 Climbing Washington Center
04:01PM 38.8481 -78.8594 269° West 353 406 26,500 1,200 Climbing Washington Center
04:02PM 38.8467 -78.9900 269° West 358 412 27,600 960 Climbing Washington Center
04:03PM 38.8431 -79.1178 268° West 364 419 28,500 900 Climbing Washington Center
04:04PM 38.8431 -79.2511 270° West 364 419 29,400 840 Climbing Washington Center
04:05PM 38.8411 -79.3869 269° West 370 426 30,200 900 Climbing Washington Center
04:06PM 38.8367 -79.5253 268° West 382 440 31,200 1,020 Climbing Washington Center
04:07PM 38.8364 -79.6533 270° West 393 452 32,300 1,020 Climbing Washington Center
04:08PM 38.8314 -79.8022 268° West 393 452 33,300 600 Climbing Washington Center
04:09PM 38.8219 -80.0381 267° West 383 441 34,000 240 Climbing Indianapolis Center
04:10PM 38.8175 -80.1817 268° West 400 460 34,000  Level Indianapolis Center
04:11PM 38.8136 -80.3300 268° West 413 475 34,000  Level Indianapolis Center
04:13PM 38.8094 -80.4769 268° West 413 475 34,000  Level Indianapolis Center
04:14PM 38.8061 -80.6267 268° West 419 482 34,100 480 Climbing Indianapolis Center
04:15PM 38.8014 -80.7717 268° West 412 474 35,000 420 Climbing Indianapolis Center
04:16PM 38.7972 -80.9186 268° West 413 475 35,000 360 Level Indianapolis Center
04:17PM 38.7919 -81.0628 267° West 407 468 35,800 480 Climbing Indianapolis Center
04:18PM 38.7861 -81.2336 268° West 402 463 36,000 60 Climbing Indianapolis Center
04:19PM 38.7817 -81.3769 268° West 405 466 36,000  Level Indianapolis Center
04:20PM 38.7753 -81.5347 267° West 406 467 36,000 900 Level Indianapolis Center
04:21PM 38.7700 -81.6731 267° West 394 453 37,900 960 Climbing Indianapolis Center
04:22PM 38.7644 -81.8053 267° West 363 418 38,000  Climbing Indianapolis Center
04:23PM 38.7592 -81.9367 267° West 368 423 38,000  Level Indianapolis Center
04:24PM 38.7533 -82.0672 267° West 368 423 38,000  Level Indianapolis Center
04:25PM 38.7483 -82.1986 267° West 369 425 38,000  Level Indianapolis Center
04:26PM 38.7439 -82.3294 268° West 370 426 38,000  Level Indianapolis Center
04:27PM 38.7389 -82.4611 267° West 369 425 38,000  Level Indianapolis Center
04:28PM 38.7319 -82.6189 267° West 370 426 38,000  Level Indianapolis Center
04:29PM 38.7258 -82.7494 267° West 368 423 38,000  Level Indianapolis Center
04:30PM 38.7206 -82.8803 267° West 367 422 38,000  Level Indianapolis Center
04:32PM 38.7083 -83.1417 267° West 366 421 38,000  Level Indianapolis Center
04:33PM 38.7022 -83.2889 267° West 364 419 38,000  Level Indianapolis Center
04:34PM 38.6950 -83.4197 266° West 365 420 38,000  Level Indianapolis Center
04:35PM 38.6894 -83.5494 267° West 362 417 38,000  Level Indianapolis Center
04:36PM 38.6833 -83.6806 267° West 364 419 38,000  Level Indianapolis Center
04:37PM 38.6756 -83.8100 266° West 364 419 38,000  Level Indianapolis Center
04:38PM 38.6697 -83.9408 267° West 364 419 38,000  Level Indianapolis Center
04:39PM 38.6625 -84.0700 266° West 362 417 38,000  Level Indianapolis Center
04:40PM 38.6561 -84.2019 266° West 367 422 38,000  Level Indianapolis Center
04:41PM 38.6503 -84.3314 267° West 365 420 38,000  Level Indianapolis Center
04:42PM 38.6606 -84.4900 275° West 378 435 38,000  Level Indianapolis Center
04:43PM 38.6678 -84.6228 274° West 374 430 38,000  Level Indianapolis Center
04:44PM 38.6864 -84.7572 280° West 381 438 38,000  Level Indianapolis Center
04:46PM 38.7081 -84.8878 282° West 388 447 38,000  Level Indianapolis Center
04:47PM 38.7297 -85.0222 282° West 385 443 38,000  Level Indianapolis Center
04:48PM 38.7508 -85.1589 281° West 389 448 38,000  Level Indianapolis Center
04:49PM 38.7725 -85.2950 282° West 390 449 38,000  Level Indianapolis Center
04:50PM 38.7969 -85.4575 281° West 387 445 38,000  Level Indianapolis Center
04:51PM 38.8181 -85.5933 281° West 388 447 38,000  Level Indianapolis Center
04:52PM 38.8389 -85.7308 281° West 391 450 38,000  Level Indianapolis Center
04:53PM 38.8586 -85.8681 280° West 392 451 38,000  Level Indianapolis Center
04:54PM 38.8817 -86.0069 282° West 397 457 38,000  Level Indianapolis Center
04:55PM 38.9017 -86.1447 281° West 393 452 38,000  Level Indianapolis Center
04:56PM 38.9228 -86.2844 281° West 396 456 38,000  Level Indianapolis Center
04:57PM 38.9461 -86.4508 280° West 395 455 38,000  Level Indianapolis Center
04:58PM 38.9664 -86.5908 281° West 398 458 38,000  Level Indianapolis Center
04:59PM 38.9864 -86.7297 281° West 396 456 38,000  Level Indianapolis Center
05:00PM 39.0058 -86.8683 280° West 394 453 38,000  Level Indianapolis Center
05:01PM 39.0253 -87.0072 280° West 395 455 38,000  Level Indianapolis Center
05:02PM 39.0447 -87.1456 280° West 395 455 38,000  Level Indianapolis Center
05:03PM 39.0636 -87.2828 280° West 392 451 38,000  Level Indianapolis Center
05:04PM 39.0828 -87.4222 280° West 395 455 38,000  Level Indianapolis Center
05:05PM 39.1053 -87.5881 280° West 392 451 38,000  Level Indianapolis Center
05:06PM 39.1239 -87.7258 280° West 390 449 38,000  Level Indianapolis Center
05:07PM 39.1417 -87.8667 279° West 395 455 38,000  Level Indianapolis Center
05:08PM 39.1572 -87.9803 280° West 396 456 38,000  Level Kansas City Center
05:09PM 39.1742 -88.1200 279° West 395 455 38,000  Level Kansas City Center
05:10PM 39.1914 -88.2597 279° West 394 453 38,000  Level Kansas City Center
05:11PM 39.2103 -88.4000 280° West 396 456 38,000  Level Kansas City Center
05:12PM 39.2278 -88.5417 279° West 398 458 38,000  Level Kansas City Center
05:13PM 39.2464 -88.7028 279° West 399 459 38,000  Level Kansas City Center
05:14PM 39.2650 -88.8450 280° West 402 463 38,000  Level Kansas City Center
05:15PM 39.2825 -88.9872 279° West 402 463 38,000  Level Kansas City Center
05:16PM 39.3014 -89.1311 280° West 407 468 38,000  Level Kansas City Center
05:17PM 39.3178 -89.2728 279° West 403 464 38,000  Level Kansas City Center
05:18PM 39.3353 -89.4161 279° West 405 466 38,000  Level Kansas City Center
05:19PM 39.3553 -89.5886 279° West 407 468 38,000  Level Kansas City Center
05:20PM 39.3717 -89.7306 279° West 405 466 38,000  Level Kansas City Center
05:21PM 39.3883 -89.8728 279° West 403 464 38,000  Level Kansas City Center
05:22PM 39.4042 -90.0147 278° West 403 464 38,000  Level Kansas City Center
05:23PM 39.4203 -90.1550 278° West 399 459 38,000  Level Kansas City Center
05:24PM 39.4392 -90.3236 278° West 399 459 38,000  Level Kansas City Center
05:25PM 39.4542 -90.4633 278° West 396 456 38,000  Level Kansas City Center
05:27PM 39.4697 -90.6044 278° West 398 458 38,000  Level Kansas City Center
05:28PM 39.4839 -90.7469 277° West 400 460 38,000  Level Kansas City Center
05:29PM 39.4992 -90.8881 278° West 400 460 38,000  Level Kansas City Center
05:30PM 39.5169 -91.0594 278° West 401 461 38,000  Level Kansas City Center
05:31PM 39.5314 -91.2044 277° West 406 467 38,000  Level Kansas City Center
05:32PM 39.5436 -91.3361 277° West 406 467 38,000  Level Kansas City Center
05:33PM 39.5581 -91.4825 277° West 410 472 38,000  Level Kansas City Center
05:34PM 39.5761 -91.6578 278° West 411 473 38,000  Level Kansas City Center
05:35PM 39.5906 -91.8033 277° West 411 473 38,000  Level Kansas City Center
05:36PM 39.6039 -91.9506 277° West 411 473 38,000  Level Kansas City Center
05:37PM 39.6186 -92.0975 277° West 412 474 38,000  Level Kansas City Center
05:38PM 39.6328 -92.2439 277° West 411 473 38,000  Level Kansas City Center
05:39PM 39.6486 -92.4211 277° West 412 474 38,000 -720 Level Kansas City Center
05:40PM 39.6531 -92.5675 272° West 409 471 36,600 -1,680 Descending Kansas City Center
05:41PM 39.6508 -92.7222 269° West 422 486 34,600 -1,920 Descending Kansas City Center
05:42PM 39.6492 -92.8711 269° West 419 482 32,700 -1,980 Descending Kansas City Center
05:43PM 39.6467 -93.0158 269° West 409 471 30,600 -2,460 Descending Kansas City Center
05:44PM 39.6444 -93.1556 269° West 394 453 27,700 -3,420 Descending Kansas City Center
05:45PM 39.6419 -93.3253 269° West 392 451 23,600 -3,840 Descending Kansas City Center
05:46PM 39.6406 -93.4642 269° West 391 450 20,000 -3,420 Descending Kansas City Center
05:47PM 39.6381 -93.5975 269° West 377 434 16,500 -3,240 Descending Kansas City Center
05:48PM 39.6350 -93.7261 268° West 362 417 13,300 -2,220 Descending Kansas City Center
05:49PM 39.6017 -93.8603 252° West 348 400 12,000 -1,140 Descending Kansas City Center
05:50PM 39.5664 -93.9725 248° West 351 404 11,000 -1,020 Descending Kansas City Center
05:51PM 39.5267 -94.0781 244° Southwest 287 330 10,000 -1,320 Descending Kansas City Center
05:52PM 39.4833 -94.1497 232° Southwest 264 304 8,300 -1,440 Descending Kansas City Center
05:53PM 39.4197 -94.2058 214° Southwest 270 311 7,000 -720 Descending Kansas City Center
05:54PM 39.3497 -94.2153 186° South 266 306 6,900 -480 Descending Kansas City Center
05:55PM 39.3122 -94.2578 221° Southwest 191 220 6,000 -900 Descending Kansas City Center
05:57PM 39.2786 -94.3186 234° Southwest 185 213 5,100 -1,020 Descending Kansas City Center
05:58PM 39.2606 -94.3778 249° West 191 220 3,900 -540 Descending Kansas City Center
05:59PM 39.2678 -94.4519 277° West 191 220 4,000 -60 Climbing Kansas City Center
06:00PM 39.2731 -94.5172 276° West 192 221 3,800 -720 Descending Kansas City Center
06:01PM 39.2792 -94.5892 276° West 181 208 2,600 -900 Descending Kansas City Center
06:02PM 39.2833 -94.6369 276° West 140 161 2,000 -660 Descending Kansas City Center
06:03PM 39.2872 -94.6847 276° West 119 137 1,300 -720 Descending Kansas City Center
06:05PM 39.2833 -94.7000 270° West  Level FlightAware Approximate